createdAt,value
2023-04-04T00:02:04.844Z,5.38
2023-04-04T00:04:31.826Z,4.18
2023-04-04T00:06:58.843Z,5.72
2023-04-04T00:09:25.935Z,6.00
2023-04-04T00:11:53.551Z,6.10
2023-04-04T00:14:20.436Z,4.13
2023-04-04T00:16:47.240Z,3.55
2023-04-04T00:19:18.232Z,3.92
2023-04-04T00:21:48.451Z,5.10
2023-04-04T00:24:15.288Z,4.22
2023-04-04T00:26:42.138Z,5.20
2023-04-04T00:29:08.978Z,4.05
2023-04-04T00:31:36.040Z,5.60
2023-04-04T00:34:03.096Z,4.75
2023-04-04T00:36:29.974Z,4.68
2023-04-04T00:38:56.993Z,4.47
2023-04-04T00:41:23.959Z,5.90
2023-04-04T00:43:51.064Z,7.28
2023-04-04T00:46:19.028Z,10.90
2023-04-04T00:48:46.162Z,7.63
2023-04-04T00:51:13.086Z,5.90
2023-04-04T00:53:40.544Z,5.10
2023-04-04T00:56:09.413Z,4.88
2023-04-04T00:58:36.477Z,4.28
2023-04-04T01:01:05.758Z,5.18
2023-04-04T01:03:33.710Z,6.63
2023-04-04T01:06:01.665Z,4.47
2023-04-04T01:08:29.708Z,4.35
2023-04-04T01:10:56.632Z,3.78
2023-04-04T01:13:23.545Z,8.05
2023-04-04T01:15:50.880Z,5.75
2023-04-04T01:18:21.537Z,4.18
2023-04-04T01:20:57.919Z,6.10
2023-04-04T01:23:51.048Z,5.20
2023-04-04T01:26:17.905Z,4.10
2023-04-04T01:28:44.682Z,4.55
2023-04-04T01:31:14.243Z,4.85
2023-04-04T01:33:48.541Z,3.30
2023-04-04T01:36:31.896Z,3.88
2023-04-04T01:39:07.628Z,3.90
2023-04-04T01:41:37.719Z,3.40
2023-04-04T01:44:04.613Z,4.55
2023-04-04T01:46:31.521Z,4.22
2023-04-04T01:48:58.828Z,6.45
2023-04-04T01:51:25.765Z,3.53
2023-04-04T01:53:52.850Z,2.85
2023-04-04T01:56:20.037Z,4.50
2023-04-04T01:58:47.391Z,7.90
2023-04-04T02:01:14.290Z,4.53
2023-04-04T02:03:41.319Z,8.90
2023-04-04T02:06:09.167Z,3.42
2023-04-04T02:08:36.437Z,5.90
2023-04-04T02:11:03.171Z,4.07
2023-04-04T02:13:29.943Z,8.43
2023-04-04T02:15:56.702Z,6.38
2023-04-04T02:18:24.628Z,5.70
2023-04-04T02:21:02.964Z,3.40
2023-04-04T02:23:29.713Z,5.47
2023-04-04T02:25:56.502Z,5.13
2023-04-04T02:28:23.316Z,9.27
2023-04-04T02:30:50.037Z,8.20
2023-04-04T02:33:17.295Z,2.75
2023-04-04T02:35:44.087Z,5.13
2023-04-04T02:38:10.910Z,4.10
2023-04-04T02:40:39.714Z,5.13
2023-04-04T02:43:06.805Z,6.32
2023-04-04T02:45:33.617Z,3.72
2023-04-04T02:48:00.413Z,5.43
2023-04-04T02:50:29.900Z,6.00
2023-04-04T02:53:01.469Z,6.97
2023-04-04T02:55:28.785Z,4.07
2023-04-04T02:57:55.859Z,5.38
2023-04-04T03:00:22.767Z,5.70
2023-04-04T03:02:57.161Z,7.10
2023-04-04T03:05:25.255Z,4.53
2023-04-04T03:07:56.387Z,6.70
2023-04-04T03:10:24.474Z,4.93
2023-04-04T03:12:51.466Z,3.80
2023-04-04T03:15:18.346Z,6.03
2023-04-04T03:17:45.498Z,5.70
2023-04-04T03:20:13.666Z,5.32
2023-04-04T03:22:40.765Z,4.72
2023-04-04T03:25:08.274Z,3.65
2023-04-04T03:27:35.259Z,4.85
2023-04-04T03:30:02.380Z,6.03
2023-04-04T03:32:29.205Z,3.97
2023-04-04T03:34:56.114Z,7.03
2023-04-04T03:37:23.054Z,4.38
2023-04-04T03:39:49.829Z,6.22
2023-04-04T03:42:16.842Z,4.65
2023-04-04T03:44:43.656Z,6.43
2023-04-04T03:47:10.498Z,4.88
2023-04-04T03:49:37.278Z,5.25
2023-04-04T03:52:04.242Z,4.05
2023-04-04T03:54:31.141Z,7.55
2023-04-04T03:56:58.164Z,4.22
2023-04-04T03:59:25.313Z,5.40
2023-04-04T04:01:52.564Z,4.35
2023-04-04T04:04:19.330Z,4.00
2023-04-04T04:06:46.291Z,5.70
2023-04-04T04:09:13.099Z,6.47
2023-04-04T04:11:42.998Z,4.03
2023-04-04T04:14:09.761Z,4.22
2023-04-04T04:16:40.457Z,7.53
2023-04-04T04:19:07.514Z,4.13
2023-04-04T04:21:34.425Z,3.42
2023-04-04T04:24:01.186Z,4.22
2023-04-04T04:26:27.947Z,4.72
2023-04-04T04:28:55.794Z,5.40
2023-04-04T04:31:22.639Z,5.55
2023-04-04T04:33:49.765Z,4.95
2023-04-04T04:36:16.782Z,6.70
2023-04-04T04:38:43.587Z,5.68
2023-04-04T04:41:10.342Z,6.05
2023-04-04T04:43:37.397Z,7.20
2023-04-04T04:46:04.277Z,5.00
2023-04-04T04:48:31.212Z,4.85
2023-04-04T04:50:57.988Z,6.05
2023-04-04T04:53:24.847Z,7.85
2023-04-04T04:55:52.559Z,5.32
2023-04-04T04:58:24.470Z,5.97
2023-04-04T05:00:57.877Z,4.30
2023-04-04T05:03:25.808Z,5.03
2023-04-04T05:05:52.614Z,5.70
2023-04-04T05:08:19.692Z,3.65
2023-04-04T05:10:46.547Z,4.63
2023-04-04T05:13:14.117Z,4.20
2023-04-04T05:15:40.924Z,4.80
2023-04-04T05:18:07.767Z,4.30
2023-04-04T05:20:35.430Z,7.18
2023-04-04T05:23:02.263Z,5.85
2023-04-04T05:25:29.064Z,5.93
2023-04-04T05:27:59.473Z,3.67
2023-04-04T05:30:26.189Z,4.82
2023-04-04T05:32:52.968Z,8.15
2023-04-04T05:35:19.877Z,4.82
2023-04-04T05:37:46.616Z,5.72
2023-04-04T05:40:13.444Z,3.97
2023-04-04T05:42:40.220Z,4.60
2023-04-04T05:45:07.707Z,7.82
2023-04-04T05:47:34.612Z,5.05
2023-04-04T05:50:01.642Z,6.10
2023-04-04T05:52:28.489Z,6.95
2023-04-04T05:54:55.229Z,4.65
2023-04-04T05:57:23.550Z,4.57
2023-04-04T05:59:51.663Z,4.32
2023-04-04T06:02:18.662Z,5.28
2023-04-04T06:04:45.700Z,4.15
2023-04-04T06:07:12.550Z,6.15
2023-04-04T06:09:40.765Z,5.40
2023-04-04T06:12:09.238Z,5.30
2023-04-04T06:14:39.178Z,4.07
2023-04-04T06:17:06.652Z,6.03
2023-04-04T06:19:33.483Z,5.25
2023-04-04T06:22:00.249Z,4.22
2023-04-04T06:24:27.460Z,5.25
2023-04-04T06:26:54.292Z,6.78
2023-04-04T06:29:21.520Z,5.57
2023-04-04T06:31:49.777Z,7.97
2023-04-04T06:34:16.820Z,3.28
2023-04-04T06:36:43.767Z,5.03
2023-04-04T06:39:10.596Z,3.80
2023-04-04T06:41:40.378Z,5.28
2023-04-04T06:44:07.292Z,4.85
2023-04-04T06:46:36.763Z,6.43
2023-04-04T06:49:03.840Z,5.93
2023-04-04T06:51:30.633Z,4.82
2023-04-04T06:53:57.600Z,7.60
2023-04-04T06:56:24.380Z,3.88
2023-04-04T06:58:51.243Z,9.88
2023-04-04T07:01:18.116Z,4.32
2023-04-04T07:03:48.025Z,6.60
2023-04-04T07:06:14.808Z,7.25
2023-04-04T07:08:41.654Z,4.65
2023-04-04T07:11:08.527Z,8.13
2023-04-04T07:13:35.630Z,7.05
2023-04-04T07:16:02.885Z,4.20
2023-04-04T07:18:32.195Z,7.10
2023-04-04T07:20:59.612Z,7.32
2023-04-04T07:23:27.191Z,7.30
2023-04-04T07:25:54.006Z,5.45
2023-04-04T07:28:20.938Z,6.13
2023-04-04T07:30:47.655Z,4.45
2023-04-04T07:33:14.665Z,7.38
2023-04-04T07:35:41.521Z,5.50
2023-04-04T07:38:08.328Z,4.72
2023-04-04T07:40:35.167Z,5.35
2023-04-04T07:43:01.990Z,5.80
2023-04-04T07:45:28.790Z,5.22
2023-04-04T07:47:56.067Z,5.60
2023-04-04T07:50:23.115Z,5.03
2023-04-04T07:52:55.897Z,4.97
2023-04-04T07:55:25.476Z,6.32
2023-04-04T07:57:53.204Z,5.07
2023-04-04T08:00:22.221Z,5.78
2023-04-04T08:02:53.974Z,5.20
2023-04-04T08:05:21.403Z,7.28
2023-04-04T08:07:48.419Z,5.68
2023-04-04T08:10:17.794Z,4.82
2023-04-04T08:12:45.177Z,5.38
2023-04-04T08:15:12.555Z,5.72
2023-04-04T08:17:39.865Z,6.07
2023-04-04T08:20:08.279Z,6.93
2023-04-04T08:22:35.240Z,4.22
2023-04-04T08:25:01.952Z,6.47
2023-04-04T08:27:28.697Z,5.72
2023-04-04T08:29:55.513Z,4.95
2023-04-04T08:32:22.357Z,6.35
2023-04-04T08:34:49.771Z,5.22
2023-04-04T08:37:17.048Z,3.78
2023-04-04T08:39:44.103Z,4.50
2023-04-04T08:42:11.981Z,6.78
2023-04-04T08:44:41.957Z,4.35
2023-04-04T08:47:10.614Z,5.07
2023-04-04T08:49:44.266Z,5.15
2023-04-04T08:52:19.453Z,5.00
2023-04-04T08:54:47.980Z,4.68
2023-04-04T08:57:15.108Z,7.93
2023-04-04T09:03:35.172Z,6.13
2023-04-04T09:06:02.432Z,5.28
2023-04-04T09:08:29.997Z,7.70
2023-04-04T09:10:57.744Z,5.25
2023-04-04T09:13:24.563Z,6.63
2023-04-04T09:15:54.239Z,5.45
2023-04-04T09:18:21.226Z,5.05
2023-04-04T09:20:48.841Z,6.05
2023-04-04T09:23:17.539Z,5.25
2023-04-04T09:28:22.887Z,7.57
2023-04-04T09:30:50.942Z,5.35
2023-04-04T09:33:19.698Z,6.15
2023-04-04T09:35:54.919Z,3.95
2023-04-04T09:38:26.669Z,5.72
2023-04-04T09:40:55.380Z,6.15
2023-04-04T09:43:24.872Z,4.72
2023-04-04T09:45:52.214Z,5.32
2023-04-04T09:48:33.522Z,5.68
2023-04-04T09:51:03.685Z,4.85
2023-04-04T09:57:22.068Z,5.80
2023-04-04T09:59:49.036Z,3.60
2023-04-04T10:02:16.544Z,5.85
2023-04-04T10:04:44.590Z,5.72
2023-04-04T10:07:16.304Z,6.15
2023-04-04T10:09:43.834Z,8.13
2023-04-04T10:12:11.393Z,6.65
2023-04-04T10:14:38.740Z,8.55
2023-04-04T10:17:13.504Z,5.10
2023-04-04T10:19:40.841Z,6.57
2023-04-04T10:22:08.497Z,5.68
2023-04-04T10:24:35.655Z,5.93
2023-04-04T10:27:02.441Z,6.30
2023-04-04T10:29:29.588Z,5.25
2023-04-04T10:32:02.520Z,5.90
2023-04-04T10:34:58.035Z,4.63
2023-04-04T10:37:31.243Z,6.38
2023-04-04T10:40:07.545Z,6.07
2023-04-04T10:42:41.265Z,4.97
2023-04-04T10:45:19.851Z,5.75
2023-04-04T10:47:48.925Z,4.78
2023-04-04T10:50:15.915Z,5.75
2023-04-04T10:52:44.583Z,6.32
2023-04-04T10:55:15.901Z,6.00
2023-04-04T10:57:47.260Z,4.18
2023-04-04T11:00:19.388Z,3.78
2023-04-04T11:05:41.061Z,6.32
2023-04-04T11:08:10.885Z,6.57
2023-04-04T11:10:45.583Z,4.88
2023-04-04T11:13:22.736Z,4.38
2023-04-04T11:16:00.941Z,6.57
2023-04-04T11:18:43.519Z,6.55
2023-04-04T11:21:21.795Z,4.07
2023-04-04T11:23:51.346Z,4.03
2023-04-04T11:26:33.091Z,5.13
2023-04-04T11:29:04.505Z,6.18
2023-04-04T11:31:43.966Z,3.28
2023-04-04T11:34:12.323Z,5.80
2023-04-04T11:36:39.895Z,3.35
2023-04-04T11:39:10.524Z,4.40
2023-04-04T11:41:52.479Z,6.72
2023-04-04T11:44:22.482Z,4.72
2023-04-04T11:46:54.882Z,3.97
2023-04-04T11:49:27.181Z,3.50
2023-04-04T11:51:54.021Z,5.10
2023-04-04T11:54:21.131Z,5.55
2023-04-04T11:56:48.201Z,4.93
2023-04-04T11:59:19.961Z,5.93
2023-04-04T12:01:47.423Z,6.63
2023-04-04T12:04:19.988Z,6.35
2023-04-04T12:06:52.198Z,7.20
2023-04-04T12:11:48.119Z,4.40
2023-04-04T12:14:19.089Z,5.72
2023-04-04T12:16:49.029Z,4.95
2023-04-04T12:19:16.984Z,6.03
2023-04-04T12:35:03.802Z,4.50
2023-04-04T12:37:31.003Z,4.47
2023-04-04T12:39:59.139Z,8.57
2023-04-04T12:42:26.757Z,4.80
2023-04-04T12:44:54.807Z,3.60
2023-04-04T12:47:26.166Z,5.47
2023-04-04T12:49:55.105Z,7.47
2023-04-04T12:52:33.216Z,5.80
2023-04-04T12:55:09.886Z,4.70
2023-04-04T12:57:39.556Z,6.00
2023-04-04T13:00:08.891Z,4.50
2023-04-04T13:02:37.472Z,4.82
2023-04-04T13:05:07.541Z,5.88
2023-04-04T13:07:42.870Z,4.65
2023-04-04T13:10:12.029Z,7.70
2023-04-04T13:13:06.652Z,7.65
2023-04-04T13:15:50.861Z,5.10
2023-04-04T13:18:23.526Z,3.90
2023-04-04T13:20:51.815Z,5.47
2023-04-04T13:23:18.902Z,4.68
2023-04-04T13:25:46.675Z,5.85
2023-04-04T13:28:14.329Z,5.63
2023-04-04T13:30:46.793Z,3.22
2023-04-04T13:33:13.868Z,4.50
2023-04-04T13:35:44.303Z,6.38
2023-04-04T13:38:11.717Z,3.63
2023-04-04T13:40:38.612Z,5.25
2023-04-04T13:43:05.442Z,6.32
2023-04-04T13:45:35.599Z,6.60
2023-04-04T13:48:02.942Z,4.57
2023-04-04T13:50:32.202Z,5.68
2023-04-04T13:52:59.158Z,5.80
2023-04-04T13:57:53.798Z,5.78
2023-04-04T14:00:20.864Z,3.95
2023-04-04T14:02:49.758Z,4.13
2023-04-04T14:05:16.823Z,6.40
2023-04-04T14:07:43.726Z,5.50
2023-04-04T14:10:13.716Z,5.72
2023-04-04T14:12:40.713Z,5.82
2023-04-04T14:15:08.108Z,5.68
2023-04-04T14:17:35.463Z,7.05
2023-04-04T14:20:03.587Z,6.57
2023-04-04T14:22:30.602Z,5.68
2023-04-04T14:24:57.358Z,5.55
2023-04-04T14:27:24.143Z,4.93
2023-04-04T14:29:50.882Z,6.75
2023-04-04T14:32:19.184Z,4.05
2023-04-04T14:34:46.020Z,4.22
2023-04-04T14:37:12.877Z,6.57
2023-04-04T14:39:39.700Z,4.35
2023-04-04T14:42:06.495Z,6.55
2023-04-04T14:44:33.838Z,5.43
2023-04-04T14:47:00.797Z,5.72
2023-04-04T14:49:27.914Z,4.55
2023-04-04T14:51:54.669Z,8.68
2023-04-04T14:54:21.650Z,7.32
2023-04-04T14:56:48.879Z,8.20
2023-04-04T14:59:15.784Z,6.25
2023-04-04T15:01:42.680Z,8.63
2023-04-04T15:04:10.762Z,5.68
2023-04-04T15:06:38.173Z,5.75
2023-04-04T15:09:09.594Z,4.05
2023-04-04T15:11:36.461Z,3.17
2023-04-04T15:14:03.496Z,6.13
2023-04-04T15:16:33.123Z,6.25
2023-04-04T15:19:00.829Z,4.47
2023-04-04T15:21:28.726Z,6.93
2023-04-04T15:23:55.616Z,5.97
2023-04-04T15:26:22.792Z,4.95
2023-04-04T15:28:49.739Z,5.15
2023-04-04T15:31:16.894Z,6.13
2023-04-04T15:33:43.617Z,3.97
2023-04-04T15:36:10.610Z,4.75
2023-04-04T15:38:37.341Z,4.43
2023-04-04T15:41:08.934Z,5.20
2023-04-04T15:43:40.677Z,6.25
2023-04-04T15:46:07.787Z,4.53
2023-04-04T15:48:34.634Z,6.10
2023-04-04T15:51:02.650Z,5.57
2023-04-04T15:53:32.775Z,6.63
2023-04-04T15:56:00.427Z,6.90
2023-04-04T15:58:27.225Z,7.07
2023-04-04T16:00:55.625Z,5.22
2023-04-04T16:03:23.958Z,7.18
2023-04-04T16:05:50.938Z,5.43
2023-04-04T16:08:18.320Z,4.45
2023-04-04T16:10:45.462Z,7.80
2023-04-04T16:13:21.805Z,5.53
2023-04-04T16:15:48.565Z,5.63
2023-04-04T16:18:15.627Z,7.28
2023-04-04T16:20:42.422Z,5.15
2023-04-04T16:23:11.646Z,6.55
2023-04-04T16:25:38.325Z,5.57
2023-04-04T16:28:08.083Z,4.65
2023-04-04T16:30:34.777Z,9.30
2023-04-04T16:33:01.767Z,6.60
2023-04-04T16:35:28.908Z,10.57
2023-04-04T16:37:58.355Z,10.07
2023-04-04T16:40:25.060Z,7.57
2023-04-04T16:42:51.772Z,6.35
2023-04-04T16:45:22.293Z,6.57
2023-04-04T16:47:49.057Z,5.40
2023-04-04T16:50:16.436Z,5.07
2023-04-04T16:52:43.198Z,7.80
2023-04-04T16:55:12.824Z,8.77
2023-04-04T16:57:39.601Z,6.68
2023-04-04T17:00:10.132Z,6.20
2023-04-04T17:02:45.350Z,5.30
2023-04-04T17:05:13.833Z,6.63
2023-04-04T17:07:41.192Z,7.07
2023-04-04T17:10:11.926Z,7.60
2023-04-04T17:12:39.417Z,6.78
2023-04-04T17:15:07.364Z,6.15
2023-04-04T17:17:37.086Z,8.57
2023-04-04T17:20:05.281Z,7.85
2023-04-04T17:22:32.368Z,14.75
2023-04-04T17:24:59.127Z,11.05
2023-04-04T17:27:26.106Z,11.68
2023-04-04T17:29:52.890Z,9.40
2023-04-04T17:32:19.766Z,7.43
2023-04-04T17:34:46.841Z,6.35
2023-04-04T17:37:13.564Z,9.68
2023-04-04T17:39:40.349Z,6.10
2023-04-04T17:42:07.104Z,7.88
2023-04-04T17:44:33.892Z,7.05
2023-04-04T17:47:00.643Z,6.68
2023-04-04T17:49:27.431Z,6.25
2023-04-04T17:51:54.190Z,5.25
2023-04-04T17:54:21.597Z,6.50
2023-04-04T17:56:48.552Z,4.53
2023-04-04T17:59:15.758Z,4.20
2023-04-04T18:01:45.405Z,4.78
2023-04-04T18:04:12.907Z,6.18
2023-04-04T18:06:41.187Z,7.00
2023-04-04T18:09:10.152Z,7.80
2023-04-04T18:11:37.530Z,9.93
2023-04-04T18:14:04.535Z,5.28
2023-04-04T18:16:39.142Z,5.97
2023-04-04T18:19:07.078Z,5.80
2023-04-04T18:21:33.756Z,6.13
2023-04-04T18:24:00.533Z,9.85
2023-04-04T18:26:27.736Z,11.45
2023-04-04T18:28:54.552Z,9.07
2023-04-04T18:31:21.579Z,12.95
2023-04-04T18:33:49.824Z,9.45
2023-04-04T18:36:16.790Z,10.02
2023-04-04T18:38:43.958Z,8.07
2023-04-04T18:41:10.915Z,7.53
2023-04-04T18:43:37.668Z,7.18
2023-04-04T18:46:05.632Z,6.65
2023-04-04T18:48:33.622Z,7.90
2023-04-04T18:51:00.691Z,10.20
2023-04-04T18:53:40.044Z,6.35
2023-04-04T18:56:13.180Z,6.07
2023-04-04T18:58:44.159Z,9.55
2023-04-04T19:01:12.683Z,10.13
2023-04-04T19:03:42.980Z,6.57
2023-04-04T19:06:16.459Z,7.55
2023-04-04T19:08:44.453Z,9.45
2023-04-04T19:11:11.733Z,8.43
2023-04-04T19:13:38.635Z,9.98
2023-04-04T19:16:05.461Z,10.48
2023-04-04T19:18:32.253Z,13.65
2023-04-04T19:20:59.119Z,12.68
2023-04-04T19:23:27.838Z,10.50
2023-04-04T19:25:55.839Z,10.13
2023-04-04T19:28:25.198Z,11.18
2023-04-04T19:30:54.322Z,13.07
2023-04-04T19:33:26.094Z,12.57
2023-04-04T19:35:58.506Z,13.00
2023-04-04T19:38:29.232Z,14.73
2023-04-04T19:41:06.677Z,19.20
2023-04-04T19:43:33.706Z,14.10
2023-04-04T19:46:09.457Z,12.85
2023-04-04T19:48:43.702Z,12.45
2023-04-04T19:51:22.385Z,13.60
2023-04-04T19:53:51.287Z,13.45
2023-04-04T19:56:19.678Z,14.18
2023-04-04T19:58:48.486Z,12.02
2023-04-04T20:01:23.527Z,11.63
2023-04-04T20:03:56.692Z,10.57
2023-04-04T20:06:35.184Z,13.38
2023-04-04T20:09:25.386Z,15.75
2023-04-04T20:11:52.092Z,17.27
2023-04-04T20:14:23.918Z,13.40
2023-04-04T20:16:52.266Z,14.68
2023-04-04T20:19:20.893Z,12.43
2023-04-04T20:21:51.839Z,14.77
2023-04-04T20:24:19.507Z,16.98
2023-04-04T20:27:01.278Z,21.13
2023-04-04T20:29:35.114Z,21.88
2023-04-04T20:32:05.060Z,20.42
2023-04-04T20:34:44.459Z,16.48
2023-04-04T20:37:20.995Z,11.02
2023-04-04T20:39:59.120Z,14.13
2023-04-04T20:42:32.586Z,13.98
2023-04-04T20:45:11.750Z,13.13
2023-04-04T20:47:55.852Z,13.98
2023-04-04T20:50:25.360Z,16.55
2023-04-04T20:53:03.147Z,15.02
2023-04-04T20:55:34.625Z,17.13
2023-04-04T20:58:13.165Z,14.40
2023-04-04T21:00:45.012Z,17.52
2023-04-04T21:03:28.761Z,17.60
2023-04-04T21:06:01.620Z,13.82
2023-04-04T21:08:41.411Z,14.77
2023-04-04T21:11:09.463Z,13.48
2023-04-04T21:13:38.738Z,15.98
2023-04-04T21:16:18.725Z,15.70
2023-04-04T21:18:46.077Z,18.08
2023-04-04T21:21:18.528Z,16.13
2023-04-04T21:23:48.098Z,14.00
2023-04-04T21:26:34.752Z,14.20
2023-04-04T21:29:04.565Z,13.20
2023-04-04T21:31:39.930Z,11.50
2023-04-04T21:34:19.766Z,12.68
2023-04-04T21:36:47.706Z,15.55
2023-04-04T21:39:23.010Z,13.88
2023-04-04T21:41:58.711Z,15.90
2023-04-04T21:44:30.663Z,16.85
2023-04-04T21:46:57.902Z,13.02
2023-04-04T21:49:25.391Z,11.52
2023-04-04T22:02:10.443Z,16.40
2023-04-04T22:15:03.567Z,11.45
2023-04-04T22:17:48.482Z,9.77
2023-04-04T22:20:21.449Z,10.00
2023-04-04T22:22:48.824Z,9.90
2023-04-04T22:25:15.695Z,11.98
2023-04-04T22:27:42.651Z,10.80
2023-04-04T22:30:10.226Z,12.38
2023-04-04T22:32:39.316Z,12.52
2023-04-04T22:35:06.705Z,11.75
2023-04-04T22:37:33.512Z,8.93
2023-04-04T22:40:00.253Z,7.93
2023-04-04T22:42:27.031Z,11.13
2023-04-04T22:44:53.755Z,10.43
2023-04-04T22:47:20.526Z,10.30
2023-04-04T22:49:49.885Z,10.02
2023-04-04T22:52:18.845Z,10.57
2023-04-04T22:54:46.287Z,9.63
2023-04-04T22:57:14.523Z,10.05
2023-04-04T22:59:41.207Z,9.55
2023-04-04T23:02:07.943Z,9.40
2023-04-04T23:04:34.739Z,10.65
2023-04-04T23:07:02.441Z,8.45
2023-04-04T23:09:30.077Z,7.32
2023-04-04T23:11:57.552Z,8.77
2023-04-04T23:14:24.259Z,7.60
2023-04-04T23:16:52.629Z,10.43
2023-04-04T23:19:19.360Z,11.30
2023-04-04T23:21:46.102Z,9.23
2023-04-04T23:24:12.930Z,8.32
2023-04-04T23:26:39.655Z,7.32
2023-04-04T23:29:06.416Z,10.40
2023-04-04T23:31:33.249Z,9.57
2023-04-04T23:34:00.342Z,14.02
2023-04-04T23:36:27.208Z,15.70
2023-04-04T23:38:53.999Z,15.82
2023-04-04T23:41:21.541Z,14.02
2023-04-04T23:43:48.241Z,15.05
2023-04-04T23:46:15.494Z,13.57
2023-04-04T23:48:42.458Z,14.15
2023-04-04T23:51:10.973Z,12.80
2023-04-04T23:53:37.828Z,13.55
2023-04-04T23:56:04.708Z,10.10
2023-04-04T23:58:31.463Z,10.80
